sensor_id;sensor_type;location;lat;lon;timestamp;pressure;altitude;pressure_sealevel;temperature;humidity
61961;BME280;47923;42.506;24.192;2023-12-04T00:01:35;95837.59;;;1.27;84.01
61961;BME280;47923;42.506;24.192;2023-12-04T00:04:01;95837.31;;;1.29;84.60
61961;BME280;47923;42.506;24.192;2023-12-04T00:06:27;95840.28;;;1.27;84.62
61961;BME280;47923;42.506;24.192;2023-12-04T00:08:52;95612.63;;;-0.19;83.94
61961;BME280;47923;42.506;24.192;2023-12-04T00:11:18;95739.06;;;0.62;84.16
61961;BME280;47923;42.506;24.192;2023-12-04T00:13:43;95846.03;;;1.16;83.86
61961;BME280;47923;42.506;24.192;2023-12-04T00:16:08;95838.75;;;1.02;84.26
61961;BME280;47923;42.506;24.192;2023-12-04T00:18:34;95849.69;;;1.01;84.07
61961;BME280;47923;42.506;24.192;2023-12-04T00:20:59;95630.56;;;-0.54;84.04
61961;BME280;47923;42.506;24.192;2023-12-04T00:23:25;95809.56;;;0.60;84.75
61961;BME280;47923;42.506;24.192;2023-12-04T00:25:50;95840.38;;;0.61;84.81
61961;BME280;47923;42.506;24.192;2023-12-04T00:28:16;95765.38;;;0.21;84.34
61961;BME280;47923;42.506;24.192;2023-12-04T00:30:41;95850.03;;;0.75;84.40
61961;BME280;47923;42.506;24.192;2023-12-04T00:33:07;95808.94;;;0.44;84.28
61961;BME280;47923;42.506;24.192;2023-12-04T00:35:32;95822.81;;;0.41;84.63
61961;BME280;47923;42.506;24.192;2023-12-04T00:37:57;95857.97;;;0.57;84.60
61961;BME280;47923;42.506;24.192;2023-12-04T00:40:23;95730.59;;;-0.25;84.42
61961;BME280;47923;42.506;24.192;2023-12-04T00:42:48;95870.53;;;0.51;85.02
61961;BME280;47923;42.506;24.192;2023-12-04T00:45:14;95785.34;;;-0.06;85.22
61961;BME280;47923;42.506;24.192;2023-12-04T00:47:39;95924.59;;;0.41;85.22
61961;BME280;47923;42.506;24.192;2023-12-04T00:50:05;95880.63;;;0.30;84.82
61961;BME280;47923;42.506;24.192;2023-12-04T00:52:30;95886.78;;;0.25;85.13
61961;BME280;47923;42.506;24.192;2023-12-04T00:54:56;95895.31;;;0.22;85.07
61961;BME280;47923;42.506;24.192;2023-12-04T00:57:21;95924.56;;;0.22;85.29
61961;BME280;47923;42.506;24.192;2023-12-04T00:59:47;95765.69;;;-0.58;85.44
61961;BME280;47923;42.506;24.192;2023-12-04T01:02:12;95893.16;;;0.24;85.65
61961;BME280;47923;42.506;24.192;2023-12-04T01:04:41;95902.47;;;0.22;86.16
61961;BME280;47923;42.506;24.192;2023-12-04T01:07:09;95546.63;;;-2.09;85.69
61961;BME280;47923;42.506;24.192;2023-12-04T01:09:35;95820.91;;;-0.31;85.59
61961;BME280;47923;42.506;24.192;2023-12-04T01:12:01;95784.81;;;-0.61;85.71
61961;BME280;47923;42.506;24.192;2023-12-04T01:14:26;95666.84;;;-1.31;85.32
61961;BME280;47923;42.506;24.192;2023-12-04T01:16:51;95909.94;;;0.20;85.24
61961;BME280;47923;42.506;24.192;2023-12-04T01:19:17;95912.59;;;0.20;85.33
61961;BME280;47923;42.506;24.192;2023-12-04T01:21:42;95917.13;;;0.19;85.52
61961;BME280;47923;42.506;24.192;2023-12-04T01:24:08;95710.72;;;-1.15;85.39
61961;BME280;47923;42.506;24.192;2023-12-04T01:26:33;95665.94;;;-1.51;85.71
61961;BME280;47923;42.506;24.192;2023-12-04T01:28:59;95696.56;;;-1.34;86.07
61961;BME280;47923;42.506;24.192;2023-12-04T01:31:24;95916.25;;;0.00;86.34
61961;BME280;47923;42.506;24.192;2023-12-04T01:33:50;95921.59;;;-0.05;86.87
61961;BME280;47923;42.506;24.192;2023-12-04T01:36:15;95664.00;;;-1.79;87.40
61961;BME280;47923;42.506;24.192;2023-12-04T01:38:41;95750.53;;;-1.20;87.46
61961;BME280;47923;42.506;24.192;2023-12-04T01:41:06;95451.47;;;-3.18;87.07
61961;BME280;47923;42.506;24.192;2023-12-04T01:43:32;95642.94;;;-2.00;87.26
61961;BME280;47923;42.506;24.192;2023-12-04T01:45:59;95875.22;;;-0.52;87.37
61961;BME280;47923;42.506;24.192;2023-12-04T01:48:26;95822.47;;;-0.93;87.34
61961;BME280;47923;42.506;24.192;2023-12-04T01:50:52;95938.50;;;-0.30;87.92
61961;BME280;47923;42.506;24.192;2023-12-04T01:53:18;95763.91;;;-1.41;87.20
61961;BME280;47923;42.506;24.192;2023-12-04T01:55:45;95924.22;;;-0.34;87.38
61961;BME280;47923;42.506;24.192;2023-12-04T01:58:11;95925.59;;;-0.37;88.20
61961;BME280;47923;42.506;24.192;2023-12-04T02:00:37;95931.44;;;-0.40;88.06
61961;BME280;47923;42.506;24.192;2023-12-04T02:03:02;95912.16;;;-0.56;88.32
61961;BME280;47923;42.506;24.192;2023-12-04T02:05:29;95862.50;;;-0.89;88.39
61961;BME280;47923;42.506;24.192;2023-12-04T02:07:54;95779.06;;;-1.46;88.66
61961;BME280;47923;42.506;24.192;2023-12-04T02:10:21;95932.03;;;-0.53;88.71
61961;BME280;47923;42.506;24.192;2023-12-04T02:12:46;95706.75;;;-2.01;88.18
61961;BME280;47923;42.506;24.192;2023-12-04T02:15:12;95909.13;;;-0.78;88.13
61961;BME280;47923;42.506;24.192;2023-12-04T02:17:39;95937.72;;;-0.65;88.67
61961;BME280;47923;42.506;24.192;2023-12-04T02:20:05;95707.09;;;-2.13;88.67
61961;BME280;47923;42.506;24.192;2023-12-04T02:22:31;95927.41;;;-0.71;88.71
61961;BME280;47923;42.506;24.192;2023-12-04T02:24:56;95936.16;;;-0.71;88.69
61961;BME280;47923;42.506;24.192;2023-12-04T02:27:38;95879.03;;;-1.02;88.43
61961;BME280;47923;42.506;24.192;2023-12-04T02:30:08;95865.38;;;-1.25;88.29
61961;BME280;47923;42.506;24.192;2023-12-04T02:32:43;95932.44;;;-0.75;88.75
61961;BME280;47923;42.506;24.192;2023-12-04T02:35:10;95883.31;;;-1.12;88.54
61961;BME280;47923;42.506;24.192;2023-12-04T02:37:36;95852.78;;;-1.53;88.90
61961;BME280;47923;42.506;24.192;2023-12-04T02:40:02;95935.53;;;-1.07;89.19
61961;BME280;47923;42.506;24.192;2023-12-04T02:42:28;95944.78;;;-0.94;89.25
61961;BME280;47923;42.506;24.192;2023-12-04T02:44:54;95802.56;;;-1.89;89.56
61961;BME280;47923;42.506;24.192;2023-12-04T02:47:20;95946.38;;;-0.98;90.28
61961;BME280;47923;42.506;24.192;2023-12-04T02:49:45;95868.41;;;-1.62;90.11
61961;BME280;47923;42.506;24.192;2023-12-04T02:52:10;95886.66;;;-1.45;90.17
61961;BME280;47923;42.506;24.192;2023-12-04T02:54:36;95952.25;;;-1.06;90.13
61961;BME280;47923;42.506;24.192;2023-12-04T02:57:01;95896.75;;;-1.52;90.34
61961;BME280;47923;42.506;24.192;2023-12-04T02:59:27;95758.00;;;-2.52;89.98
61961;BME280;47923;42.506;24.192;2023-12-04T03:01:52;95963.16;;;-1.18;90.97
61961;BME280;47923;42.506;24.192;2023-12-04T03:04:19;95819.84;;;-2.17;90.52
61961;BME280;47923;42.506;24.192;2023-12-04T03:06:45;95643.88;;;-3.25;90.74
61961;BME280;47923;42.506;24.192;2023-12-04T03:09:10;95465.47;;;-4.38;90.32
61961;BME280;47923;42.506;24.192;2023-12-04T03:11:39;95979.31;;;-1.15;90.74
61961;BME280;47923;42.506;24.192;2023-12-04T03:14:05;95927.22;;;-1.50;89.93
61961;BME280;47923;42.506;24.192;2023-12-04T03:16:30;95941.25;;;-1.54;90.09
61961;BME280;47923;42.506;24.192;2023-12-04T03:18:56;95695.66;;;-2.93;90.39
61961;BME280;47923;42.506;24.192;2023-12-04T03:21:21;95986.72;;;-1.06;89.84
61961;BME280;47923;42.506;24.192;2023-12-04T03:23:47;95748.50;;;-2.68;89.71
61961;BME280;47923;42.506;24.192;2023-12-04T03:26:12;95833.38;;;-2.24;89.63
61961;BME280;47923;42.506;24.192;2023-12-04T03:28:38;95810.63;;;-2.35;89.88
61961;BME280;47923;42.506;24.192;2023-12-04T03:31:05;95875.41;;;-1.97;89.79
61961;BME280;47923;42.506;24.192;2023-12-04T03:33:31;95998.16;;;-1.21;89.77
61961;BME280;47923;42.506;24.192;2023-12-04T03:35:56;95860.63;;;-2.13;89.64
61961;BME280;47923;42.506;24.192;2023-12-04T03:38:21;95814.31;;;-2.36;89.27
61961;BME280;47923;42.506;24.192;2023-12-04T03:40:47;95983.66;;;-1.39;89.40
61961;BME280;47923;42.506;24.192;2023-12-04T03:43:12;95941.00;;;-1.63;89.31
61961;BME280;47923;42.506;24.192;2023-12-04T03:45:38;96006.91;;;-1.16;88.56
61961;BME280;47923;42.506;24.192;2023-12-04T03:48:04;95808.78;;;-2.44;88.50
61961;BME280;47923;42.506;24.192;2023-12-04T03:50:30;96006.63;;;-1.19;88.45
61961;BME280;47923;42.506;24.192;2023-12-04T03:52:55;96012.22;;;-1.21;88.60
61961;BME280;47923;42.506;24.192;2023-12-04T03:55:21;96005.56;;;-1.18;87.91
61961;BME280;47923;42.506;24.192;2023-12-04T03:57:47;96012.47;;;-1.17;87.54
61961;BME280;47923;42.506;24.192;2023-12-04T04:00:13;96017.00;;;-1.23;87.67
61961;BME280;47923;42.506;24.192;2023-12-04T04:02:43;96026.03;;;-1.24;87.82
61961;BME280;47923;42.506;24.192;2023-12-04T04:05:09;95956.16;;;-1.69;87.86
61961;BME280;47923;42.506;24.192;2023-12-04T04:07:34;96024.16;;;-1.28;87.17
61961;BME280;47923;42.506;24.192;2023-12-04T04:10:00;95859.59;;;-2.27;86.77
61961;BME280;47923;42.506;24.192;2023-12-04T04:12:27;96017.53;;;-1.26;86.57
61961;BME280;47923;42.506;24.192;2023-12-04T04:14:52;96011.97;;;-1.29;86.56
61961;BME280;47923;42.506;24.192;2023-12-04T04:17:18;96028.94;;;-1.35;86.61
61961;BME280;47923;42.506;24.192;2023-12-04T04:19:43;95976.00;;;-1.71;86.52
61961;BME280;47923;42.506;24.192;2023-12-04T04:22:09;96020.47;;;-1.43;86.90
61961;BME280;47923;42.506;24.192;2023-12-04T04:24:34;96018.38;;;-1.46;86.37
61961;BME280;47923;42.506;24.192;2023-12-04T04:27:00;96036.38;;;-1.48;86.40
61961;BME280;47923;42.506;24.192;2023-12-04T04:29:25;95822.81;;;-2.90;86.26
61961;BME280;47923;42.506;24.192;2023-12-04T04:31:50;95900.31;;;-2.43;86.87
61961;BME280;47923;42.506;24.192;2023-12-04T04:34:16;95897.69;;;-2.43;87.96
61961;BME280;47923;42.506;24.192;2023-12-04T04:36:43;95972.59;;;-1.87;88.18
61961;BME280;47923;42.506;24.192;2023-12-04T04:39:10;95553.75;;;-4.61;87.81
61961;BME280;47923;42.506;24.192;2023-12-04T04:41:36;95966.25;;;-1.96;87.88
61961;BME280;47923;42.506;24.192;2023-12-04T04:44:01;95963.88;;;-2.03;87.85
61961;BME280;47923;42.506;24.192;2023-12-04T04:46:27;95984.75;;;-1.91;87.26
61961;BME280;47923;42.506;24.192;2023-12-04T04:48:53;96040.38;;;-1.60;87.45
61961;BME280;47923;42.506;24.192;2023-12-04T04:51:19;96046.75;;;-1.61;87.81
61961;BME280;47923;42.506;24.192;2023-12-04T04:53:45;95701.19;;;-3.81;86.88
61961;BME280;47923;42.506;24.192;2023-12-04T04:56:10;96054.44;;;-1.65;87.37
61961;BME280;47923;42.506;24.192;2023-12-04T04:58:36;96034.56;;;-1.83;87.22
61961;BME280;47923;42.506;24.192;2023-12-04T05:01:01;95984.75;;;-2.06;87.33
61961;BME280;47923;42.506;24.192;2023-12-04T05:03:27;95972.34;;;-2.26;86.81
61961;BME280;47923;42.506;24.192;2023-12-04T05:05:52;95572.56;;;-5.05;86.71
61961;BME280;47923;42.506;24.192;2023-12-04T05:08:18;95977.88;;;-2.23;86.83
61961;BME280;47923;42.506;24.192;2023-12-04T05:10:43;95913.81;;;-2.50;86.82
61961;BME280;47923;42.506;24.192;2023-12-04T05:13:09;95755.09;;;-3.52;86.34
61961;BME280;47923;42.506;24.192;2023-12-04T05:15:34;96061.84;;;-1.57;85.95
61961;BME280;47923;42.506;24.192;2023-12-04T05:18:00;95911.44;;;-2.46;85.86
61961;BME280;47923;42.506;24.192;2023-12-04T05:20:25;95798.22;;;-3.16;85.37
61961;BME280;47923;42.506;24.192;2023-12-04T05:22:51;95828.38;;;-2.91;85.26
61961;BME280;47923;42.506;24.192;2023-12-04T05:25:17;95819.91;;;-2.88;85.41
61961;BME280;47923;42.506;24.192;2023-12-04T05:27:43;95977.34;;;-1.79;84.77
61961;BME280;47923;42.506;24.192;2023-12-04T05:30:08;95976.28;;;-1.78;84.87
61961;BME280;47923;42.506;24.192;2023-12-04T05:32:34;95925.72;;;-2.07;83.90
61961;BME280;47923;42.506;24.192;2023-12-04T05:34:59;96085.88;;;-0.97;83.35
61961;BME280;47923;42.506;24.192;2023-12-04T05:37:25;96086.41;;;-0.95;82.94
61961;BME280;47923;42.506;24.192;2023-12-04T05:39:50;96086.09;;;-0.84;82.73
61961;BME280;47923;42.506;24.192;2023-12-04T05:42:15;95981.00;;;-1.54;82.12
61961;BME280;47923;42.506;24.192;2023-12-04T05:44:41;96048.00;;;-1.13;81.46
61961;BME280;47923;42.506;24.192;2023-12-04T05:47:07;95785.00;;;-2.75;81.05
61961;BME280;47923;42.506;24.192;2023-12-04T05:49:33;96108.88;;;-0.67;81.67
61961;BME280;47923;42.506;24.192;2023-12-04T05:51:59;96104.38;;;-0.72;80.80
61961;BME280;47923;42.506;24.192;2023-12-04T05:54:24;96106.22;;;-0.67;79.89
61961;BME280;47923;42.506;24.192;2023-12-04T05:56:50;96105.13;;;-0.66;80.01
61961;BME280;47923;42.506;24.192;2023-12-04T05:59:15;96100.59;;;-0.56;79.84
61961;BME280;47923;42.506;24.192;2023-12-04T06:01:41;96005.31;;;-1.22;79.67
61961;BME280;47923;42.506;24.192;2023-12-04T06:04:06;95772.28;;;-2.58;79.35
61961;BME280;47923;42.506;24.192;2023-12-04T06:06:31;95977.84;;;-1.46;78.55
61961;BME280;47923;42.506;24.192;2023-12-04T06:08:57;96115.13;;;-0.38;78.19
61961;BME280;47923;42.506;24.192;2023-12-04T06:11:22;96120.91;;;-0.25;78.58
61961;BME280;47923;42.506;24.192;2023-12-04T06:13:48;95820.69;;;-2.27;77.73
61961;BME280;47923;42.506;24.192;2023-12-04T06:16:13;95973.50;;;-1.17;78.25
61961;BME280;47923;42.506;24.192;2023-12-04T06:18:39;95903.91;;;-1.63;77.93
61961;BME280;47923;42.506;24.192;2023-12-04T06:21:04;96132.84;;;-0.18;77.48
61961;BME280;47923;42.506;24.192;2023-12-04T06:23:31;96030.44;;;-0.99;77.45
61961;BME280;47923;42.506;24.192;2023-12-04T06:25:57;96143.19;;;-0.16;77.62
61961;BME280;47923;42.506;24.192;2023-12-04T06:28:23;95650.22;;;-3.41;76.60
61961;BME280;47923;42.506;24.192;2023-12-04T06:30:48;95906.88;;;-1.85;76.17
61961;BME280;47923;42.506;24.192;2023-12-04T06:33:14;96143.22;;;-0.26;76.65
61961;BME280;47923;42.506;24.192;2023-12-04T06:35:41;96040.78;;;-0.92;76.62
61961;BME280;47923;42.506;24.192;2023-12-04T06:38:07;95947.88;;;-1.47;76.11
61961;BME280;47923;42.506;24.192;2023-12-04T06:40:34;96051.59;;;-0.78;76.43
61961;BME280;47923;42.506;24.192;2023-12-04T06:43:00;96111.94;;;-0.35;76.62
61961;BME280;47923;42.506;24.192;2023-12-04T06:45:26;95963.47;;;-1.30;76.44
61961;BME280;47923;42.506;24.192;2023-12-04T06:47:53;96159.84;;;-0.01;77.06
61961;BME280;47923;42.506;24.192;2023-12-04T06:50:19;96159.88;;;-0.06;75.68
61961;BME280;47923;42.506;24.192;2023-12-04T06:52:45;96136.28;;;-0.17;76.34
61961;BME280;47923;42.506;24.192;2023-12-04T06:55:12;96144.47;;;-0.09;76.50
61961;BME280;47923;42.506;24.192;2023-12-04T06:57:40;96168.00;;;0.13;75.74
61961;BME280;47923;42.506;24.192;2023-12-04T07:00:06;96180.41;;;0.28;75.54
61961;BME280;47923;42.506;24.192;2023-12-04T07:02:33;96163.25;;;0.10;75.13
61961;BME280;47923;42.506;24.192;2023-12-04T07:04:58;96179.09;;;0.31;75.23
61961;BME280;47923;42.506;24.192;2023-12-04T07:07:24;96132.19;;;0.06;75.27
61961;BME280;47923;42.506;24.192;2023-12-04T07:09:50;96173.09;;;0.54;75.27
61961;BME280;47923;42.506;24.192;2023-12-04T07:12:16;96179.59;;;0.72;74.55
61961;BME280;47923;42.506;24.192;2023-12-04T07:14:41;96115.69;;;0.48;73.99
61961;BME280;47923;42.506;24.192;2023-12-04T07:17:07;95956.13;;;-0.44;73.08
61961;BME280;47923;42.506;24.192;2023-12-04T07:19:32;96188.09;;;1.08;72.49
61961;BME280;47923;42.506;24.192;2023-12-04T07:21:58;96192.00;;;1.16;73.23
61961;BME280;47923;42.506;24.192;2023-12-04T07:24:23;96207.22;;;1.10;73.42
61961;BME280;47923;42.506;24.192;2023-12-04T07:26:49;95630.44;;;-2.38;73.60
61961;BME280;47923;42.506;24.192;2023-12-04T07:29:15;96184.44;;;1.28;73.64
61961;BME280;47923;42.506;24.192;2023-12-04T07:31:41;95962.34;;;-0.20;73.22
61961;BME280;47923;42.506;24.192;2023-12-04T07:34:07;95836.75;;;-0.89;72.80
61961;BME280;47923;42.506;24.192;2023-12-04T07:36:32;96200.28;;;1.43;72.66
61961;BME280;47923;42.506;24.192;2023-12-04T07:38:58;96185.84;;;1.49;73.62
61961;BME280;47923;42.506;24.192;2023-12-04T07:41:23;96168.44;;;1.33;74.17
61961;BME280;47923;42.506;24.192;2023-12-04T07:43:49;96195.28;;;1.60;74.20
61961;BME280;47923;42.506;24.192;2023-12-04T07:46:14;96192.84;;;1.69;73.51
61961;BME280;47923;42.506;24.192;2023-12-04T07:48:41;96197.00;;;1.75;73.13
61961;BME280;47923;42.506;24.192;2023-12-04T07:51:09;96052.81;;;0.91;72.80
61961;BME280;47923;42.506;24.192;2023-12-04T07:53:34;96197.41;;;1.87;72.88
61961;BME280;47923;42.506;24.192;2023-12-04T07:56:03;96205.34;;;1.92;71.85
61961;BME280;47923;42.506;24.192;2023-12-04T07:58:30;96197.69;;;1.86;70.88
61961;BME280;47923;42.506;24.192;2023-12-04T08:00:56;96028.91;;;0.86;70.21
61961;BME280;47923;42.506;24.192;2023-12-04T08:03:21;96055.78;;;1.14;71.08
61961;BME280;47923;42.506;24.192;2023-12-04T08:05:47;96204.09;;;2.09;70.38
61961;BME280;47923;42.506;24.192;2023-12-04T08:08:12;96111.16;;;1.35;70.02
61961;BME280;47923;42.506;24.192;2023-12-04T08:10:38;96199.28;;;1.87;70.89
61961;BME280;47923;42.506;24.192;2023-12-04T08:13:03;96149.31;;;1.55;70.48
61961;BME280;47923;42.506;24.192;2023-12-04T08:15:28;96187.56;;;1.64;70.78
61961;BME280;47923;42.506;24.192;2023-12-04T08:17:54;95984.78;;;0.32;71.13
61961;BME280;47923;42.506;24.192;2023-12-04T08:20:20;96200.38;;;1.62;71.54
61961;BME280;47923;42.506;24.192;2023-12-04T08:22:47;95922.16;;;-0.08;71.81
61961;BME280;47923;42.506;24.192;2023-12-04T08:25:13;96162.84;;;1.58;70.67
61961;BME280;47923;42.506;24.192;2023-12-04T08:27:38;96146.06;;;1.58;70.89
61961;BME280;47923;42.506;24.192;2023-12-04T08:30:05;96218.19;;;2.09;70.64
61961;BME280;47923;42.506;24.192;2023-12-04T08:32:30;96066.41;;;1.14;71.03
61961;BME280;47923;42.506;24.192;2023-12-04T08:34:56;95880.69;;;-0.04;70.86
61961;BME280;47923;42.506;24.192;2023-12-04T08:37:22;96112.34;;;1.72;70.13
61961;BME280;47923;42.506;24.192;2023-12-04T08:39:47;96221.19;;;2.64;70.37
61961;BME280;47923;42.506;24.192;2023-12-04T08:42:12;96233.84;;;2.59;68.58
61961;BME280;47923;42.506;24.192;2023-12-04T08:44:38;96018.63;;;1.27;67.98
61961;BME280;47923;42.506;24.192;2023-12-04T08:47:04;96123.03;;;2.10;67.11
61961;BME280;47923;42.506;24.192;2023-12-04T08:49:30;96131.03;;;2.47;66.89
61961;BME280;47923;42.506;24.192;2023-12-04T08:51:56;95939.34;;;1.43;65.59
61961;BME280;47923;42.506;24.192;2023-12-04T08:54:21;96210.59;;;3.29;65.46
61961;BME280;47923;42.506;24.192;2023-12-04T08:56:47;95987.22;;;1.86;65.30
61961;BME280;47923;42.506;24.192;2023-12-04T08:59:12;96205.25;;;3.29;65.38
61961;BME280;47923;42.506;24.192;2023-12-04T09:01:39;96213.34;;;3.57;64.58
61961;BME280;47923;42.506;24.192;2023-12-04T09:04:04;96206.84;;;4.04;64.22
61961;BME280;47923;42.506;24.192;2023-12-04T09:06:30;96014.84;;;3.29;63.23
61961;BME280;47923;42.506;24.192;2023-12-04T09:08:55;95799.53;;;2.06;62.17
61961;BME280;47923;42.506;24.192;2023-12-04T09:11:21;96027.00;;;3.99;60.49
61961;BME280;47923;42.506;24.192;2023-12-04T09:13:46;96204.69;;;5.37;60.68
61961;BME280;47923;42.506;24.192;2023-12-04T09:16:11;96194.31;;;5.75;59.37
61961;BME280;47923;42.506;24.192;2023-12-04T09:18:37;96155.34;;;5.78;57.02
61961;BME280;47923;42.506;24.192;2023-12-04T09:21:03;96193.09;;;6.30;56.00
61961;BME280;47923;42.506;24.192;2023-12-04T09:23:29;96142.91;;;5.82;54.39
61961;BME280;47923;42.506;24.192;2023-12-04T09:25:55;96117.81;;;5.78;55.02
61961;BME280;47923;42.506;24.192;2023-12-04T09:28:21;95958.63;;;5.31;53.65
61961;BME280;47923;42.506;24.192;2023-12-04T09:30:46;96191.13;;;6.87;52.33
61961;BME280;47923;42.506;24.192;2023-12-04T09:33:12;96072.97;;;6.27;51.42
61961;BME280;47923;42.506;24.192;2023-12-04T09:35:37;96027.03;;;6.37;51.11
61961;BME280;47923;42.506;24.192;2023-12-04T09:38:02;96064.53;;;6.89;51.16
61961;BME280;47923;42.506;24.192;2023-12-04T09:40:28;96174.47;;;7.84;49.76
61961;BME280;47923;42.506;24.192;2023-12-04T09:42:54;96177.50;;;7.83;49.52
61961;BME280;47923;42.506;24.192;2023-12-04T09:45:20;96172.34;;;9.20;47.70
61961;BME280;47923;42.506;24.192;2023-12-04T09:47:48;96173.41;;;9.97;45.30
61961;BME280;47923;42.506;24.192;2023-12-04T09:50:15;96064.47;;;9.78;43.76
61961;BME280;47923;42.506;24.192;2023-12-04T09:52:41;96155.75;;;10.12;42.58
61961;BME280;47923;42.506;24.192;2023-12-04T09:55:07;96161.72;;;9.93;44.82
61961;BME280;47923;42.506;24.192;2023-12-04T09:57:33;96161.06;;;9.84;44.13
61961;BME280;47923;42.506;24.192;2023-12-04T10:00:00;96158.94;;;10.27;45.08
61961;BME280;47923;42.506;24.192;2023-12-04T10:02:28;95979.03;;;9.45;42.97
61961;BME280;47923;42.506;24.192;2023-12-04T10:04:53;95977.13;;;9.46;43.75
61961;BME280;47923;42.506;24.192;2023-12-04T10:07:19;96071.25;;;10.76;42.78
61961;BME280;47923;42.506;24.192;2023-12-04T10:09:44;96153.69;;;11.98;41.17
61961;BME280;47923;42.506;24.192;2023-12-04T10:12:10;96141.75;;;12.69;41.28
61961;BME280;47923;42.506;24.192;2023-12-04T10:14:36;96149.84;;;13.05;39.00
61961;BME280;47923;42.506;24.192;2023-12-04T10:17:14;96060.50;;;12.34;39.04
61961;BME280;47923;42.506;24.192;2023-12-04T10:19:41;96057.84;;;11.71;39.84
61961;BME280;47923;42.506;24.192;2023-12-04T10:22:08;96133.69;;;11.43;41.45
61961;BME280;47923;42.506;24.192;2023-12-04T10:24:38;96143.47;;;11.32;42.47
61961;BME280;47923;42.506;24.192;2023-12-04T10:27:10;96137.31;;;11.79;41.31
61961;BME280;47923;42.506;24.192;2023-12-04T10:29:49;96129.31;;;11.98;41.93
61961;BME280;47923;42.506;24.192;2023-12-04T10:32:21;96134.94;;;11.46;42.48
61961;BME280;47923;42.506;24.192;2023-12-04T10:34:49;96134.16;;;10.89;41.76
61961;BME280;47923;42.506;24.192;2023-12-04T10:37:15;96134.97;;;10.01;43.57
61961;BME280;47923;42.506;24.192;2023-12-04T10:39:49;96136.25;;;9.46;45.97
61961;BME280;47923;42.506;24.192;2023-12-04T10:44:50;96145.03;;;9.55;44.77
61961;BME280;47923;42.506;24.192;2023-12-04T10:47:16;96135.88;;;9.92;44.42
61961;BME280;47923;42.506;24.192;2023-12-04T10:49:42;96144.63;;;9.89;44.74
61961;BME280;47923;42.506;24.192;2023-12-04T10:52:09;95891.66;;;8.85;44.19
61961;BME280;47923;42.506;24.192;2023-12-04T10:54:34;95989.47;;;9.59;43.54
61961;BME280;47923;42.506;24.192;2023-12-04T10:57:01;96136.53;;;10.26;44.35
61961;BME280;47923;42.506;24.192;2023-12-04T10:59:32;95945.88;;;9.08;44.85
61961;BME280;47923;42.506;24.192;2023-12-04T11:02:05;96135.03;;;10.65;44.09
61961;BME280;47923;42.506;24.192;2023-12-04T11:04:31;96142.50;;;10.32;44.52
61961;BME280;47923;42.506;24.192;2023-12-04T11:07:00;96097.59;;;10.39;43.94
61961;BME280;47923;42.506;24.192;2023-12-04T11:09:28;95969.59;;;9.51;43.31
61961;BME280;47923;42.506;24.192;2023-12-04T11:11:58;95976.56;;;9.40;43.47
61961;BME280;47923;42.506;24.192;2023-12-04T11:14:28;96006.22;;;9.28;44.15
61961;BME280;47923;42.506;24.192;2023-12-04T11:17:02;96047.63;;;8.99;45.88
61961;BME280;47923;42.506;24.192;2023-12-04T11:19:39;95785.09;;;6.56;47.40
61961;BME280;47923;42.506;24.192;2023-12-04T11:22:09;96161.91;;;9.19;46.91
61961;BME280;47923;42.506;24.192;2023-12-04T11:24:36;96148.38;;;8.85;47.85
61961;BME280;47923;42.506;24.192;2023-12-04T11:27:02;96151.00;;;8.73;48.16
61961;BME280;47923;42.506;24.192;2023-12-04T11:29:29;95891.22;;;6.91;48.28
61961;BME280;47923;42.506;24.192;2023-12-04T11:31:55;96107.31;;;7.96;49.28
61961;BME280;47923;42.506;24.192;2023-12-04T11:34:21;96158.84;;;8.16;49.52
61961;BME280;47923;42.506;24.192;2023-12-04T11:36:46;96037.53;;;7.32;49.83
61961;BME280;47923;42.506;24.192;2023-12-04T11:39:12;96151.53;;;7.87;50.11
61961;BME280;47923;42.506;24.192;2023-12-04T11:41:38;95911.19;;;6.09;50.34
61961;BME280;47923;42.506;24.192;2023-12-04T11:44:11;96144.13;;;7.19;51.86
61961;BME280;47923;42.506;24.192;2023-12-04T11:46:38;96158.84;;;7.22;51.96
61961;BME280;47923;42.506;24.192;2023-12-04T11:49:26;96155.88;;;6.72;53.71
61961;BME280;47923;42.506;24.192;2023-12-04T11:51:53;96046.78;;;6.32;54.82
61961;BME280;47923;42.506;24.192;2023-12-04T11:54:21;96083.53;;;6.15;52.43
61961;BME280;47923;42.506;24.192;2023-12-04T11:59:38;96149.06;;;7.09;53.03
61961;BME280;47923;42.506;24.192;2023-12-04T12:02:07;95934.53;;;5.65;53.02
61961;BME280;47923;42.506;24.192;2023-12-04T12:04:33;96144.03;;;6.81;53.68
61961;BME280;47923;42.506;24.192;2023-12-04T12:06:59;96169.31;;;6.89;53.26
61961;BME280;47923;42.506;24.192;2023-12-04T12:09:28;96151.28;;;6.81;53.30
61961;BME280;47923;42.506;24.192;2023-12-04T12:11:54;95928.97;;;5.18;53.79
61961;BME280;47923;42.506;24.192;2023-12-04T12:14:21;95897.56;;;5.02;54.67
61961;BME280;47923;42.506;24.192;2023-12-04T12:16:46;96141.34;;;6.73;55.07
61961;BME280;47923;42.506;24.192;2023-12-04T12:19:12;96136.31;;;6.71;54.62
61961;BME280;47923;42.506;24.192;2023-12-04T12:21:37;95784.16;;;4.32;54.68
61961;BME280;47923;42.506;24.192;2023-12-04T12:24:05;96109.91;;;6.64;55.81
61961;BME280;47923;42.506;24.192;2023-12-04T12:26:31;96035.56;;;6.39;56.35
61961;BME280;47923;42.506;24.192;2023-12-04T12:28:57;96036.03;;;6.41;54.38
61961;BME280;47923;42.506;24.192;2023-12-04T12:31:22;96139.72;;;7.24;54.16
61961;BME280;47923;42.506;24.192;2023-12-04T12:33:48;96016.28;;;6.37;54.32
61961;BME280;47923;42.506;24.192;2023-12-04T12:36:14;95861.06;;;5.40;54.52
61961;BME280;47923;42.506;24.192;2023-12-04T12:38:41;96020.88;;;6.36;54.45
61961;BME280;47923;42.506;24.192;2023-12-04T12:41:07;96144.03;;;6.99;55.60
61961;BME280;47923;42.506;24.192;2023-12-04T12:43:37;96104.38;;;6.52;55.26
61961;BME280;47923;42.506;24.192;2023-12-04T12:46:04;96136.59;;;6.87;57.61
61961;BME280;47923;42.506;24.192;2023-12-04T12:48:32;96141.53;;;6.76;56.25
61961;BME280;47923;42.506;24.192;2023-12-04T12:50:57;96057.97;;;6.43;58.13
61961;BME280;47923;42.506;24.192;2023-12-04T12:53:23;95943.56;;;6.04;57.48
61961;BME280;47923;42.506;24.192;2023-12-04T12:55:49;96134.16;;;7.37;56.30